createdAt,value
2018-09-05T00:01:24.022Z,9.23
2018-09-05T00:03:51.436Z,8.97
2018-09-05T00:06:18.755Z,8.50
2018-09-05T00:08:46.153Z,8.93
2018-09-05T00:11:13.720Z,8.77
2018-09-05T00:13:41.093Z,9.00
2018-09-05T00:16:08.512Z,9.03
2018-09-05T00:18:35.928Z,10.03
2018-09-05T00:21:03.472Z,9.47
2018-09-05T00:23:30.852Z,9.27
2018-09-05T00:25:58.330Z,9.17
2018-09-05T00:28:25.801Z,8.77
2018-09-05T00:30:53.617Z,8.47
2018-09-05T00:33:21.512Z,8.20
2018-09-05T00:35:48.865Z,8.73
2018-09-05T00:38:16.175Z,9.57
2018-09-05T00:40:43.641Z,8.70
2018-09-05T00:43:11.091Z,8.50
2018-09-05T00:45:38.434Z,8.53
2018-09-05T00:48:05.794Z,8.93
2018-09-05T00:50:33.182Z,8.63
2018-09-05T00:53:00.486Z,8.80
2018-09-05T00:55:27.906Z,8.97
2018-09-05T00:57:55.273Z,8.63
2018-09-05T01:00:22.703Z,8.80
2018-09-05T01:02:50.245Z,8.20
2018-09-05T01:05:17.608Z,9.77
2018-09-05T01:07:44.928Z,9.00
2018-09-05T01:10:12.323Z,10.10
2018-09-05T01:12:39.640Z,9.77
2018-09-05T01:15:07.019Z,9.27
2018-09-05T01:17:34.311Z,9.03
2018-09-05T01:20:01.890Z,8.77
2018-09-05T01:22:29.325Z,8.60
2018-09-05T01:24:56.722Z,8.90
2018-09-05T01:27:24.034Z,8.80
2018-09-05T01:29:51.470Z,8.60
2018-09-05T01:32:18.854Z,9.10
2018-09-05T01:34:46.315Z,8.30
2018-09-05T01:37:13.859Z,8.90
2018-09-05T01:39:41.329Z,7.93
2018-09-05T01:42:09.894Z,9.20
2018-09-05T01:44:37.729Z,9.50
2018-09-05T01:47:05.101Z,9.50
2018-09-05T01:49:33.129Z,9.20
2018-09-05T01:52:00.882Z,9.33
2018-09-05T01:54:28.253Z,9.67
2018-09-05T01:56:56.472Z,9.03
2018-09-05T01:59:24.713Z,8.40
2018-09-05T02:01:52.250Z,9.37
2018-09-05T02:04:20.806Z,9.77
2018-09-05T02:06:48.172Z,9.00
2018-09-05T02:09:15.693Z,9.50
2018-09-05T02:11:43.430Z,8.80
2018-09-05T02:14:11.720Z,8.27
2018-09-05T02:16:39.138Z,8.50
2018-09-05T02:19:06.528Z,10.03
2018-09-05T02:21:34.035Z,10.03
2018-09-05T02:24:02.305Z,9.10
2018-09-05T02:26:29.633Z,9.53
2018-09-05T02:28:57.073Z,8.83
2018-09-05T02:31:24.441Z,9.63
2018-09-05T02:33:52.423Z,9.40
2018-09-05T02:36:19.838Z,9.60
2018-09-05T02:38:47.208Z,8.90
2018-09-05T02:41:14.665Z,9.40
2018-09-05T02:43:47.514Z,10.10
2018-09-05T02:46:14.838Z,9.03
2018-09-05T02:48:42.232Z,10.03
2018-09-05T02:51:09.580Z,9.77
2018-09-05T02:53:36.953Z,9.80
2018-09-05T02:56:04.375Z,9.40
2018-09-05T02:58:33.533Z,9.43
2018-09-05T03:01:00.997Z,9.73
2018-09-05T03:03:28.740Z,9.93
2018-09-05T03:05:56.148Z,10.07
2018-09-05T03:08:23.680Z,10.47
2018-09-05T03:10:51.067Z,9.13
2018-09-05T03:13:18.405Z,8.63
2018-09-05T03:15:45.741Z,9.20
2018-09-05T03:18:13.072Z,8.90
2018-09-05T03:20:40.437Z,8.73
2018-09-05T03:23:07.823Z,8.97
2018-09-05T03:25:35.257Z,9.90
2018-09-05T03:28:02.608Z,9.70
2018-09-05T03:30:30.017Z,9.53
2018-09-05T03:32:57.490Z,10.90
2018-09-05T03:35:24.952Z,9.60
2018-09-05T03:37:53.005Z,10.10
2018-09-05T03:40:20.565Z,10.10
2018-09-05T03:42:47.887Z,10.30
2018-09-05T03:45:15.212Z,10.47
2018-09-05T03:47:42.717Z,9.90
2018-09-05T03:50:10.149Z,10.27
2018-09-05T03:52:37.486Z,9.83
2018-09-05T03:55:04.872Z,9.80
2018-09-05T03:57:32.247Z,10.60
2018-09-05T03:59:59.632Z,11.13
2018-09-05T04:02:27.083Z,11.10
2018-09-05T04:04:54.517Z,10.20
2018-09-05T04:07:21.802Z,10.90
2018-09-05T04:09:49.127Z,9.67
2018-09-05T04:12:16.594Z,10.37
2018-09-05T04:14:44.130Z,10.03
2018-09-05T04:17:11.448Z,9.87
2018-09-05T04:19:38.801Z,10.77
2018-09-05T04:22:06.255Z,11.70
2018-09-05T04:24:33.608Z,9.87
2018-09-05T04:27:01.376Z,10.93
2018-09-05T04:29:28.805Z,11.20
2018-09-05T04:31:56.301Z,11.17
2018-09-05T04:34:23.712Z,10.90
2018-09-05T04:36:51.113Z,10.67
2018-09-05T04:39:18.674Z,10.80
2018-09-05T04:41:46.223Z,10.23
2018-09-05T04:44:13.577Z,10.23
2018-09-05T04:46:40.926Z,12.37
2018-09-05T04:49:08.331Z,11.70
2018-09-05T04:51:35.967Z,11.27
2018-09-05T04:54:03.808Z,11.77
2018-09-05T04:56:31.313Z,12.47
2018-09-05T04:59:03.213Z,11.93
2018-09-05T05:01:30.626Z,11.23
2018-09-05T05:03:58.020Z,11.67
2018-09-05T05:06:25.414Z,11.10
2018-09-05T05:08:52.764Z,11.80
2018-09-05T05:11:20.107Z,12.40
2018-09-05T05:13:47.550Z,10.87
2018-09-05T05:16:14.811Z,11.33
2018-09-05T05:18:42.236Z,12.47
2018-09-05T05:21:09.561Z,11.40
2018-09-05T05:23:36.925Z,12.03
2018-09-05T05:26:04.295Z,11.57
2018-09-05T05:28:31.621Z,12.20
2018-09-05T05:30:58.924Z,12.60
2018-09-05T05:33:26.275Z,11.43
2018-09-05T05:35:53.671Z,12.27
2018-09-05T05:38:21.157Z,12.50
2018-09-05T05:40:48.512Z,11.70
2018-09-05T05:43:15.881Z,13.00
2018-09-05T05:45:43.237Z,11.20
2018-09-05T05:48:10.888Z,11.60
2018-09-05T05:50:38.244Z,12.03
2018-09-05T05:53:05.617Z,10.87
2018-09-05T05:55:33.052Z,12.10
2018-09-05T05:58:00.653Z,12.73
2018-09-05T06:00:28.070Z,12.20
2018-09-05T06:02:55.957Z,11.33
2018-09-05T06:05:23.289Z,12.13
2018-09-05T06:07:50.704Z,12.57
2018-09-05T06:10:18.566Z,12.30
2018-09-05T06:12:46.189Z,12.70
2018-09-05T06:15:13.649Z,12.57
2018-09-05T06:17:41.545Z,11.50
2018-09-05T06:20:10.818Z,10.97
2018-09-05T06:22:38.238Z,11.50
2018-09-05T06:25:05.610Z,11.33
2018-09-05T06:27:33.008Z,11.93
2018-09-05T06:30:01.732Z,11.90
2018-09-05T06:32:29.148Z,13.60
2018-09-05T06:34:56.862Z,11.10
2018-09-05T06:37:24.243Z,12.20
2018-09-05T06:39:51.967Z,11.10
2018-09-05T06:42:19.254Z,11.10
2018-09-05T06:44:46.628Z,12.20
2018-09-05T06:47:14.107Z,11.23
2018-09-05T06:49:41.470Z,11.90
2018-09-05T06:52:08.922Z,11.40
2018-09-05T06:54:36.348Z,11.80
2018-09-05T06:57:03.790Z,11.67
2018-09-05T06:59:31.113Z,13.20
2018-09-05T07:01:58.496Z,11.80
2018-09-05T07:04:25.909Z,12.07
2018-09-05T07:06:53.266Z,12.10
2018-09-05T07:09:20.686Z,12.43
2018-09-05T07:11:48.230Z,11.20
2018-09-05T07:14:16.071Z,11.50
2018-09-05T07:16:43.536Z,12.03
2018-09-05T07:19:12.061Z,10.77
2018-09-05T07:21:39.535Z,11.40
2018-09-05T07:24:08.078Z,11.47
2018-09-05T07:26:36.166Z,11.80
2018-09-05T07:29:03.586Z,11.13
2018-09-05T07:31:31.181Z,11.23
2018-09-05T07:33:58.841Z,11.57
2018-09-05T07:36:26.325Z,9.63
2018-09-05T07:38:53.700Z,10.67
2018-09-05T07:41:21.201Z,10.90
2018-09-05T07:43:49.078Z,10.10
2018-09-05T07:46:16.506Z,9.70
2018-09-05T07:48:44.011Z,9.97
2018-09-05T07:51:11.683Z,10.60
2018-09-05T07:53:39.072Z,10.07
2018-09-05T07:56:06.672Z,10.80
2018-09-05T07:58:34.122Z,11.00
2018-09-05T08:01:01.501Z,11.20
2018-09-05T08:03:29.031Z,11.57
2018-09-05T08:05:56.660Z,10.67
2018-09-05T08:08:24.041Z,10.87
2018-09-05T08:10:51.813Z,12.43
2018-09-05T08:13:19.309Z,10.60
2018-09-05T08:15:47.118Z,9.53
2018-09-05T08:18:14.541Z,10.70
2018-09-05T08:20:42.299Z,9.60
2018-09-05T08:23:09.745Z,9.90
2018-09-05T08:25:37.182Z,12.20
2018-09-05T08:28:04.574Z,10.93
2018-09-05T08:30:31.921Z,10.67
2018-09-05T08:32:59.418Z,10.57
2018-09-05T08:35:27.087Z,11.57
2018-09-05T08:37:54.437Z,10.57
2018-09-05T08:40:21.978Z,10.27
2018-09-05T08:42:49.491Z,10.40
2018-09-05T08:45:17.287Z,9.90
2018-09-05T08:47:44.697Z,10.53
2018-09-05T08:50:12.061Z,10.83
2018-09-05T08:52:39.727Z,10.57
2018-09-05T08:55:07.257Z,9.90
2018-09-05T08:57:34.666Z,10.50
2018-09-05T09:00:02.209Z,10.37
2018-09-05T09:02:29.879Z,10.53
2018-09-05T09:04:57.797Z,9.80
2018-09-05T09:07:25.187Z,9.77
2018-09-05T09:09:52.947Z,9.83
2018-09-05T09:12:20.989Z,9.40
2018-09-05T09:14:48.318Z,9.83
2018-09-05T09:17:15.706Z,9.87
2018-09-05T09:19:43.227Z,9.80
2018-09-05T09:22:10.679Z,9.50
2018-09-05T09:24:38.333Z,9.93
2018-09-05T09:27:05.848Z,9.30
2018-09-05T09:29:33.430Z,10.50
2018-09-05T09:32:01.506Z,11.00
2018-09-05T09:34:28.904Z,10.53
2018-09-05T09:36:56.461Z,11.00
2018-09-05T09:39:23.849Z,11.77
2018-09-05T09:41:51.674Z,11.33
2018-09-05T09:44:19.195Z,10.33
2018-09-05T09:46:46.641Z,11.10
2018-09-05T09:49:14.033Z,11.40
2018-09-05T09:51:41.529Z,10.90
2018-09-05T09:54:08.930Z,10.27
2018-09-05T09:56:36.355Z,10.97
2018-09-05T09:59:03.962Z,12.23
2018-09-05T10:01:36.742Z,11.90
2018-09-05T10:04:09.978Z,11.57
2018-09-05T10:08:45.437Z,12.47
2018-09-05T10:11:15.807Z,11.90
2018-09-05T10:13:48.588Z,11.87
2018-09-05T10:16:21.343Z,13.57
2018-09-05T10:18:51.097Z,12.77
2018-09-05T10:21:18.603Z,13.50
2018-09-05T10:23:46.181Z,14.97
2018-09-05T10:26:13.565Z,12.60
2018-09-05T10:28:41.025Z,12.90
2018-09-05T10:31:08.413Z,14.87
2018-09-05T10:33:35.872Z,12.27
2018-09-05T10:36:04.328Z,12.47
2018-09-05T10:38:31.812Z,12.80
2018-09-05T10:40:59.199Z,12.40
2018-09-05T10:43:26.641Z,12.93
2018-09-05T10:45:54.185Z,11.33
2018-09-05T10:48:21.640Z,12.77
2018-09-05T10:50:49.149Z,11.37
2018-09-05T10:53:16.756Z,10.80
2018-09-05T10:55:44.284Z,11.70
2018-09-05T10:58:11.958Z,12.80
2018-09-05T11:00:39.517Z,12.53
2018-09-05T11:03:07.638Z,12.60
2018-09-05T11:05:35.085Z,12.40
2018-09-05T11:08:02.812Z,12.83
2018-09-05T11:10:30.325Z,13.73
2018-09-05T11:12:57.751Z,12.90
2018-09-05T11:15:25.252Z,13.70
2018-09-05T11:17:52.650Z,12.30
2018-09-05T11:20:20.220Z,11.63
2018-09-05T11:22:47.713Z,13.83
2018-09-05T11:25:15.137Z,12.80
2018-09-05T11:27:42.519Z,14.03
2018-09-05T11:30:10.275Z,13.50
2018-09-05T11:32:37.733Z,12.90
2018-09-05T11:35:05.217Z,13.80
2018-09-05T11:37:33.575Z,13.60
2018-09-05T11:40:02.034Z,13.50
2018-09-05T11:42:29.490Z,14.67
2018-09-05T11:44:56.987Z,13.13
2018-09-05T11:47:25.337Z,14.30
2018-09-05T11:49:52.944Z,13.87
2018-09-05T11:52:20.365Z,14.60
2018-09-05T11:54:47.728Z,14.90
2018-09-05T11:57:15.175Z,13.80
2018-09-05T11:59:42.639Z,15.17
2018-09-05T12:02:10.309Z,15.03
2018-09-05T12:04:38.875Z,15.03
2018-09-05T12:07:06.421Z,14.80
2018-09-05T12:09:33.774Z,14.20
2018-09-05T12:12:02.220Z,15.27
2018-09-05T12:14:29.636Z,13.97
2018-09-05T12:16:57.053Z,14.93
2018-09-05T12:19:24.509Z,15.47
2018-09-05T12:21:51.986Z,15.90
2018-09-05T12:24:19.502Z,15.43
2018-09-05T12:26:46.861Z,14.00
2018-09-05T12:29:14.432Z,17.50
2018-09-05T12:31:43.179Z,15.37
2018-09-05T12:34:11.152Z,15.93
2018-09-05T12:36:38.731Z,14.07
2018-09-05T12:39:12.743Z,16.03
2018-09-05T12:41:40.475Z,17.20
2018-09-05T12:44:07.981Z,15.43
2018-09-05T12:46:35.337Z,16.60
2018-09-05T12:49:02.677Z,16.40
2018-09-05T12:51:30.179Z,14.37
2018-09-05T12:53:57.636Z,14.30
2018-09-05T12:56:26.024Z,16.23
2018-09-05T12:58:53.521Z,15.90
2018-09-05T13:01:21.026Z,15.87
2018-09-05T13:03:48.566Z,14.43
2018-09-05T13:06:16.111Z,16.13
2018-09-05T13:08:43.650Z,15.50
2018-09-05T13:11:11.138Z,15.30
2018-09-05T13:13:38.594Z,15.40
2018-09-05T13:16:06.004Z,16.63
2018-09-05T13:18:33.374Z,15.00
2018-09-05T13:21:01.030Z,15.87
2018-09-05T13:23:28.383Z,15.30
2018-09-05T13:25:55.905Z,15.93
2018-09-05T13:28:23.432Z,15.77
2018-09-05T13:30:50.916Z,15.90
2018-09-05T13:33:18.419Z,15.80
2018-09-05T13:35:45.947Z,15.10
2018-09-05T13:38:13.348Z,15.50
2018-09-05T13:40:40.750Z,15.77
2018-09-05T13:43:08.736Z,15.70
2018-09-05T13:45:36.194Z,15.37
2018-09-05T13:48:03.790Z,15.40
2018-09-05T13:50:31.210Z,15.90
2018-09-05T13:52:58.763Z,14.00
2018-09-05T13:55:26.822Z,14.33
2018-09-05T13:57:54.177Z,14.83
2018-09-05T14:00:21.929Z,13.83
2018-09-05T14:02:49.466Z,14.33
2018-09-05T14:05:17.522Z,14.83
2018-09-05T14:07:45.133Z,15.13
2018-09-05T14:10:13.244Z,14.67
2018-09-05T14:12:40.821Z,15.10
2018-09-05T14:15:08.295Z,14.13
2018-09-05T14:17:36.638Z,14.07
2018-09-05T14:20:04.764Z,15.13
2018-09-05T14:22:32.438Z,14.30
2018-09-05T14:24:59.832Z,13.57
2018-09-05T14:27:27.337Z,14.60
2018-09-05T14:29:54.708Z,13.23
2018-09-05T14:32:22.536Z,14.13
2018-09-05T14:34:49.900Z,13.60
2018-09-05T14:37:17.415Z,13.97
2018-09-05T14:39:44.759Z,13.60
2018-09-05T14:42:12.214Z,14.40
2018-09-05T14:44:39.602Z,14.77
2018-09-05T14:47:07.086Z,15.63
2018-09-05T14:49:34.553Z,14.23
2018-09-05T14:52:01.968Z,14.40
2018-09-05T14:54:29.431Z,14.47
2018-09-05T14:56:56.855Z,15.53
2018-09-05T14:59:24.767Z,14.07
2018-09-05T15:01:52.257Z,15.00
2018-09-05T15:04:19.670Z,13.80
2018-09-05T15:06:47.070Z,14.00
2018-09-05T15:09:14.493Z,14.77
2018-09-05T15:11:42.012Z,14.30
2018-09-05T15:14:10.437Z,13.80
2018-09-05T15:16:38.074Z,13.63
2018-09-05T15:19:05.551Z,14.00
2018-09-05T15:21:32.951Z,12.47
2018-09-05T15:24:00.387Z,13.23
2018-09-05T15:26:28.046Z,13.57
2018-09-05T15:28:55.628Z,13.50
2018-09-05T15:31:23.291Z,14.77
2018-09-05T15:33:50.726Z,12.00
2018-09-05T15:36:18.232Z,13.67
2018-09-05T15:38:46.541Z,13.67
2018-09-05T15:41:13.822Z,13.13
2018-09-05T15:43:41.300Z,13.93
2018-09-05T15:46:08.772Z,14.40
2018-09-05T15:48:36.140Z,13.33
2018-09-05T15:51:03.543Z,12.27
2018-09-05T15:53:31.093Z,13.17
2018-09-05T15:55:58.686Z,13.27
2018-09-05T15:58:26.380Z,13.07
2018-09-05T16:00:53.748Z,13.47
2018-09-05T16:03:21.255Z,12.03
2018-09-05T16:05:48.764Z,13.00
2018-09-05T16:08:16.426Z,13.47
2018-09-05T16:10:44.015Z,13.13
2018-09-05T16:13:11.559Z,12.90
2018-09-05T16:15:39.290Z,13.80
2018-09-05T16:18:06.557Z,13.27
2018-09-05T16:20:34.516Z,13.73
2018-09-05T16:23:01.970Z,13.37
2018-09-05T16:25:29.771Z,13.43
2018-09-05T16:27:57.311Z,12.77
2018-09-05T16:30:25.054Z,13.30
2018-09-05T16:32:52.537Z,13.40
2018-09-05T16:35:19.961Z,12.80
2018-09-05T16:37:47.297Z,12.50
2018-09-05T16:40:14.673Z,13.17
2018-09-05T16:42:42.124Z,13.10
2018-09-05T16:45:09.715Z,14.07
2018-09-05T16:47:37.177Z,13.03
2018-09-05T16:50:06.370Z,13.77
2018-09-05T16:52:33.863Z,18.87
2018-09-05T16:55:01.352Z,13.30
2018-09-05T16:57:28.832Z,13.40
2018-09-05T16:59:56.310Z,13.70
2018-09-05T17:02:25.293Z,13.03
2018-09-05T17:04:53.635Z,14.30
2018-09-05T17:07:21.247Z,13.90
2018-09-05T17:09:49.943Z,13.90
2018-09-05T17:12:17.455Z,13.13
2018-09-05T17:14:44.955Z,14.20
2018-09-05T17:17:12.800Z,12.80
2018-09-05T17:19:40.662Z,14.00
2018-09-05T17:22:08.164Z,13.03
2018-09-05T17:24:35.994Z,12.80
2018-09-05T17:27:03.461Z,13.80
2018-09-05T17:29:31.098Z,13.60
2018-09-05T17:31:58.714Z,14.40
2018-09-05T17:34:26.324Z,13.83
2018-09-05T17:36:53.956Z,12.80
2018-09-05T17:39:21.446Z,13.53
2018-09-05T17:41:49.133Z,13.33
2018-09-05T17:44:16.755Z,13.73
2018-09-05T17:46:44.807Z,14.30
2018-09-05T17:49:12.398Z,13.83
2018-09-05T17:51:39.973Z,13.90
2018-09-05T17:54:07.592Z,14.03
2018-09-05T17:56:35.721Z,13.63
2018-09-05T17:59:03.152Z,14.67
2018-09-05T18:01:30.800Z,14.30
2018-09-05T18:03:58.108Z,13.80
2018-09-05T18:06:25.524Z,13.97
2018-09-05T18:08:53.060Z,13.03
2018-09-05T18:11:20.917Z,14.70
2018-09-05T18:13:48.347Z,14.30
2018-09-05T18:16:16.706Z,13.60
2018-09-05T18:18:44.883Z,15.80
2018-09-05T18:21:12.356Z,14.43
2018-09-05T18:23:39.753Z,14.27
2018-09-05T18:26:07.188Z,15.23
2018-09-05T18:28:34.557Z,14.47
2018-09-05T18:31:02.359Z,15.30
2018-09-05T18:33:29.795Z,15.40
2018-09-05T18:35:57.288Z,14.93
2018-09-05T18:38:24.844Z,14.33
2018-09-05T18:40:52.284Z,14.63
2018-09-05T18:43:19.672Z,15.27
2018-09-05T18:45:47.126Z,18.40
2018-09-05T18:48:14.555Z,14.80
2018-09-05T18:50:41.992Z,15.07
2018-09-05T18:53:11.311Z,14.60
2018-09-05T18:55:39.382Z,15.00
2018-09-05T18:58:07.050Z,15.03
2018-09-05T19:00:34.706Z,14.70
2018-09-05T19:03:02.134Z,15.07
2018-09-05T19:05:29.549Z,15.30
2018-09-05T19:07:57.207Z,13.87
2018-09-05T19:10:24.709Z,14.37
2018-09-05T19:12:52.494Z,16.50
2018-09-05T19:15:19.911Z,14.73
2018-09-05T19:17:47.423Z,15.63
2018-09-05T19:20:14.949Z,15.50
2018-09-05T19:22:42.343Z,14.90
2018-09-05T19:25:10.059Z,15.83
2018-09-05T19:27:37.514Z,14.20
2018-09-05T19:30:05.603Z,13.60
2018-09-05T19:32:33.066Z,15.23
2018-09-05T19:35:00.553Z,15.23
2018-09-05T19:37:28.535Z,15.43
2018-09-05T19:39:56.058Z,16.57
2018-09-05T19:42:23.687Z,15.70
2018-09-05T19:44:51.178Z,15.53
2018-09-05T19:47:18.800Z,14.90
2018-09-05T19:49:46.537Z,15.23
2018-09-05T19:52:15.610Z,15.73
2018-09-05T19:54:43.182Z,15.80
2018-09-05T19:57:10.909Z,15.10
2018-09-05T19:59:38.892Z,16.33
2018-09-05T20:02:06.511Z,14.57
2018-09-05T20:04:34.163Z,16.50
2018-09-05T20:07:02.419Z,16.47
2018-09-05T20:09:30.119Z,15.10
2018-09-05T20:11:57.951Z,15.67
2018-09-05T20:14:28.027Z,14.70
2018-09-05T20:16:55.644Z,15.53
2018-09-05T20:19:23.085Z,15.43
2018-09-05T20:21:50.735Z,16.27
2018-09-05T20:24:18.568Z,15.00
2018-09-05T20:26:46.640Z,14.40
2018-09-05T20:29:14.225Z,15.40
2018-09-05T20:31:42.187Z,13.40
2018-09-05T20:34:09.720Z,14.37
2018-09-05T20:36:37.192Z,13.77
2018-09-05T20:39:06.913Z,13.77
2018-09-05T20:41:34.298Z,13.77
2018-09-05T20:44:01.891Z,13.90
2018-09-05T20:46:29.343Z,14.00
2018-09-05T20:48:56.797Z,14.00
2018-09-05T20:51:24.451Z,14.00
2018-09-05T20:53:53.345Z,13.40
2018-09-05T20:56:21.209Z,14.27
2018-09-05T20:58:48.945Z,14.37
2018-09-05T21:01:16.631Z,13.80
2018-09-05T21:03:44.240Z,13.60
2018-09-05T21:06:11.708Z,13.90
2018-09-05T21:08:39.715Z,14.13
2018-09-05T21:11:07.273Z,12.57
2018-09-05T21:13:35.202Z,13.50
2018-09-05T21:16:02.751Z,13.70
2018-09-05T21:18:30.264Z,14.10
2018-09-05T21:21:02.739Z,14.13
2018-09-05T21:23:32.260Z,14.80
2018-09-05T21:26:00.179Z,14.03
2018-09-05T21:28:27.719Z,14.37
2018-09-05T21:30:56.368Z,14.33
2018-09-05T21:33:24.418Z,14.63
2018-09-05T21:35:52.070Z,13.83
2018-09-05T21:38:19.967Z,14.57
2018-09-05T21:40:47.797Z,14.50
2018-09-05T21:43:15.461Z,14.33
2018-09-05T21:45:43.016Z,13.80
2018-09-05T21:48:10.889Z,13.40
2018-09-05T21:50:39.316Z,14.70
2018-09-05T21:53:08.395Z,14.47
2018-09-05T21:55:36.925Z,13.87
2018-09-05T21:58:04.623Z,14.67
2018-09-05T22:00:32.164Z,14.70
2018-09-05T22:02:59.873Z,15.40
2018-09-05T22:05:27.590Z,15.47
2018-09-05T22:07:55.096Z,14.30
2018-09-05T22:10:23.140Z,15.20
2018-09-05T22:12:50.874Z,15.10
2018-09-05T22:15:19.019Z,15.00
2018-09-05T22:17:46.568Z,15.07
2018-09-05T22:20:14.353Z,14.87
2018-09-05T22:22:41.882Z,15.13
2018-09-05T22:25:09.911Z,15.40
2018-09-05T22:27:37.955Z,14.70
2018-09-05T22:30:05.491Z,14.10
2018-09-05T22:32:33.202Z,15.17
2018-09-05T22:35:00.680Z,16.20
2018-09-05T22:37:28.097Z,15.30
2018-09-05T22:39:55.527Z,15.37
2018-09-05T22:42:22.933Z,15.07
2018-09-05T22:44:56.613Z,15.73
2018-09-05T22:47:29.653Z,15.47
2018-09-05T22:50:07.987Z,15.37
2018-09-05T22:52:46.400Z,14.80
2018-09-05T22:55:24.678Z,15.27
2018-09-05T23:00:01.085Z,14.20
2018-09-05T23:02:41.114Z,14.50
2018-09-05T23:05:12.090Z,14.40
2018-09-05T23:07:45.956Z,15.00
2018-09-05T23:10:19.087Z,15.03
2018-09-05T23:12:52.334Z,16.03
2018-09-05T23:15:25.216Z,14.70
2018-09-05T23:20:01.287Z,14.43
2018-09-05T23:22:34.686Z,14.37
2018-09-05T23:25:02.460Z,15.17
2018-09-05T23:27:29.946Z,15.07
2018-09-05T23:29:57.381Z,14.73
2018-09-05T23:32:24.799Z,14.90
2018-09-05T23:34:52.523Z,15.30
2018-09-05T23:37:19.909Z,14.60
2018-09-05T23:39:47.797Z,14.33
2018-09-05T23:42:15.301Z,15.20
2018-09-05T23:44:42.735Z,15.10
2018-09-05T23:47:10.296Z,15.17
2018-09-05T23:49:38.100Z,15.13
2018-09-05T23:52:06.061Z,14.03
2018-09-05T23:54:33.525Z,14.13
2018-09-05T23:57:00.952Z,14.80
2018-09-05T23:59:28.511Z,15.30
